Time;durP1;ratioP1;P1;durP2;ratioP2;P2;SDS_P1;SDS_P2;PMS_P1;PMS_P2;Temp;Humidity;BMP_temperature;BMP_pressure;BME280_temperature;BME280_humidity;BME280_pressure;Samples;Min_cycle;Max_cycle;Signal;HPM_P1;HPM_P2
2024/01/12 00:02:00;;;;;;;43.83;22.00;;;3.00;68.90;0.90;97341.00;;;;5075236;28;20546;-77
2024/01/12 00:04:27;;;;;;;40.33;19.80;;;3.00;68.90;1.00;97339.00;;;;5072890;28;20445;-78
2024/01/12 00:06:55;;;;;;;41.30;22.13;;;3.00;68.90;1.00;97346.00;;;;5072816;28;20499;-78
2024/01/12 00:09:22;;;;;;;42.33;21.60;;;3.00;68.90;1.00;97345.00;;;;5069541;28;20456;-78
2024/01/12 00:11:49;;;;;;;38.77;20.77;;;3.10;69.00;1.00;97347.00;;;;5065458;28;20505;-78
2024/01/12 00:14:16;;;;;;;44.77;21.47;;;3.00;68.90;1.00;97345.00;;;;5059706;28;20450;-78
2024/01/12 00:16:47;;;;;;;43.10;20.67;;;3.10;69.10;1.00;97343.00;;;;5071642;28;20557;-78
2024/01/12 00:19:17;;;;;;;43.53;21.23;;;3.10;69.10;1.10;97348.00;;;;5073030;28;20504;-78
2024/01/12 00:21:44;;;;;;;47.03;23.03;;;3.10;68.90;1.10;97351.00;;;;5075577;28;20434;-78
2024/01/12 00:24:12;;;;;;;44.50;22.20;;;3.10;68.80;1.00;97354.00;;;;5073861;28;20533;-78
2024/01/12 00:26:39;;;;;;;43.13;22.33;;;3.10;68.70;1.10;97361.00;;;;5073632;28;20450;-78
2024/01/12 00:29:06;;;;;;;44.33;21.90;;;3.10;68.70;1.10;97357.00;;;;5080490;28;20887;-78
2024/01/12 00:31:34;;;;;;;44.50;22.40;;;3.10;68.90;1.10;97361.00;;;;5073822;28;20434;-78
2024/01/12 00:34:01;;;;;;;44.13;22.77;;;3.10;69.00;1.10;97357.00;;;;5073207;28;20442;-78
2024/01/12 00:36:30;;;;;;;50.00;23.07;;;3.10;69.00;1.10;97362.00;;;;5072056;28;20958;-78
2024/01/12 00:38:57;;;;;;;46.10;23.33;;;3.10;69.00;1.10;97355.00;;;;5071974;28;20881;-78
2024/01/12 00:41:24;;;;;;;44.30;21.37;;;3.20;68.90;1.20;97362.00;;;;5071762;28;20442;-77
2024/01/12 00:43:51;;;;;;;45.17;22.40;;;3.20;68.80;1.20;97350.00;;;;5071682;28;20456;-78
2024/01/12 00:46:19;;;;;;;47.63;22.47;;;3.20;68.80;1.20;97364.00;;;;5072304;28;20447;-78
2024/01/12 00:48:46;;;;;;;45.27;22.33;;;3.20;68.80;1.20;97366.00;;;;5071740;28;20832;-78
2024/01/12 00:51:13;;;;;;;43.90;22.00;;;3.20;68.60;1.20;97380.00;;;;5071880;28;20946;-78
2024/01/12 00:53:43;;;;;;;43.60;21.33;;;3.20;68.60;1.20;97380.00;;;;5072941;28;20470;-78
2024/01/12 00:56:16;;;;;;;45.90;22.50;;;3.20;68.70;1.20;97382.00;;;;5073175;28;20541;-78
2024/01/12 00:58:43;;;;;;;45.77;21.80;;;3.20;68.70;1.20;97380.00;;;;5073655;28;20504;-78
2024/01/12 01:01:12;;;;;;;50.27;23.00;;;3.20;68.70;1.20;97381.00;;;;5072526;28;20478;-77
2024/01/12 01:03:39;;;;;;;48.67;23.87;;;3.20;68.80;1.20;97386.00;;;;5081445;28;20529;-78
2024/01/12 01:06:07;;;;;;;42.97;22.07;;;3.20;68.60;1.20;97387.00;;;;5073853;28;20511;-77
2024/01/12 01:08:35;;;;;;;49.27;23.27;;;3.20;69.40;1.20;97387.00;;;;5068909;28;20509;-77
2024/01/12 01:11:05;;;;;;;46.77;22.00;;;3.20;68.80;1.20;97397.00;;;;5086506;28;20422;-78
2024/01/12 01:13:35;;;;;;;48.83;22.53;;;3.20;68.80;1.20;97392.00;;;;5082879;28;20448;-77
2024/01/12 01:16:03;;;;;;;44.53;21.47;;;3.30;69.00;1.30;97389.00;;;;5080881;28;20523;-78
2024/01/12 01:18:31;;;;;;;43.10;21.73;;;3.30;69.10;1.30;97391.00;;;;5080979;28;20474;-77
2024/01/12 01:20:58;;;;;;;48.33;22.73;;;3.30;69.20;1.30;97392.00;;;;5079893;28;20435;-77
2024/01/12 01:23:27;;;;;;;44.40;22.53;;;3.30;69.20;1.30;97392.00;;;;5074124;28;20477;-79
2024/01/12 01:25:54;;;;;;;44.90;21.97;;;3.30;69.00;1.40;97399.00;;;;5072064;28;20453;-77
2024/01/12 01:28:22;;;;;;;47.03;23.20;;;3.30;69.10;1.40;97397.00;;;;5070465;28;20557;-77
2024/01/12 01:30:50;;;;;;;49.67;22.90;;;3.30;69.10;1.40;97403.00;;;;5075862;28;20434;-77
2024/01/12 01:33:17;;;;;;;43.50;20.10;;;3.40;69.10;1.40;97407.00;;;;5070803;28;20438;-77
2024/01/12 01:35:44;;;;;;;46.60;22.63;;;3.40;69.00;1.40;97403.00;;;;5071052;28;20439;-77
2024/01/12 01:38:11;;;;;;;45.43;21.50;;;3.40;69.10;1.50;97401.00;;;;5068774;28;20945;-77
2024/01/12 01:40:38;;;;;;;45.07;21.77;;;3.40;69.10;1.50;97398.00;;;;5070264;28;20447;-77
2024/01/12 01:43:10;;;;;;;45.13;23.23;;;3.40;69.20;1.50;97404.00;;;;5070524;28;20476;-77
2024/01/12 01:45:38;;;;;;;44.23;22.33;;;3.50;69.20;1.50;97398.00;;;;5061889;28;20521;-78
2024/01/12 01:48:08;;;;;;;47.67;22.93;;;3.50;69.10;1.50;97406.00;;;;5055856;28;20441;-78
2024/01/12 01:50:37;;;;;;;45.00;22.83;;;3.50;69.10;1.50;97399.00;;;;5072300;28;20492;-78
2024/01/12 01:53:05;;;;;;;46.03;22.73;;;3.50;69.10;1.50;97395.00;;;;5072203;28;20926;-78
2024/01/12 01:55:33;;;;;;;44.20;23.10;;;3.50;69.80;1.60;97392.00;;;;5070918;28;20451;-78
2024/01/12 01:58:04;;;;;;;45.40;23.53;;;3.50;69.00;1.60;97390.00;;;;5072041;28;20470;-78
2024/01/12 02:00:32;;;;;;;45.00;22.37;;;3.50;68.80;1.60;97400.00;;;;5074516;28;20456;-78
2024/01/12 02:03:02;;;;;;;44.70;22.00;;;3.50;68.80;1.50;97387.00;;;;5071998;28;20522;-78
2024/01/12 02:05:31;;;;;;;40.40;21.17;;;3.50;68.80;1.50;97393.00;;;;5070750;28;21018;-78
2024/01/12 02:07:58;;;;;;;41.93;21.53;;;3.50;68.80;1.50;97388.00;;;;5072162;28;20525;-78
2024/01/12 02:10:26;;;;;;;43.13;21.73;;;3.50;68.70;1.50;97387.00;;;;5069237;28;20436;-78
2024/01/12 02:12:53;;;;;;;45.07;23.37;;;3.50;68.90;1.50;97388.00;;;;5074094;28;21002;-78
2024/01/12 02:15:21;;;;;;;43.60;21.57;;;3.50;68.90;1.50;97384.00;;;;5070663;28;20511;-78
2024/01/12 02:17:49;;;;;;;42.77;21.87;;;3.50;68.90;1.50;97377.00;;;;5073424;28;20933;-78
2024/01/12 02:20:18;;;;;;;47.10;22.80;;;3.40;68.80;1.50;97371.00;;;;5070802;28;20486;-78
2024/01/12 02:22:46;;;;;;;43.63;22.50;;;3.40;68.80;1.50;97366.00;;;;5065027;28;21030;-78
2024/01/12 02:25:16;;;;;;;43.30;22.07;;;3.40;68.80;1.50;97366.00;;;;5071595;28;20870;-78
2024/01/12 02:27:43;;;;;;;48.80;22.60;;;3.40;68.80;1.50;97363.00;;;;5053332;28;20901;-78
2024/01/12 02:30:12;;;;;;;45.50;21.80;;;3.40;68.80;1.50;97364.00;;;;5068443;28;20473;-78
2024/01/12 02:32:39;;;;;;;45.83;21.97;;;3.40;68.70;1.50;97360.00;;;;5069800;28;20489;-78
2024/01/12 02:35:08;;;;;;;41.17;21.07;;;3.40;68.80;1.50;97352.00;;;;5071316;28;20517;-78
2024/01/12 02:37:36;;;;;;;43.47;22.13;;;3.50;68.90;1.50;97342.00;;;;5064112;28;20470;-78
2024/01/12 02:40:06;;;;;;;43.10;21.50;;;3.40;68.80;1.40;97338.00;;;;5067395;28;20551;-78
2024/01/12 02:42:33;;;;;;;41.60;21.80;;;3.40;68.70;1.40;97341.00;;;;5069651;28;20532;-78
2024/01/12 02:45:00;;;;;;;44.13;20.73;;;3.40;68.70;1.40;97339.00;;;;5071519;28;20536;-78
2024/01/12 02:47:27;;;;;;;38.10;19.77;;;3.40;69.40;1.40;97328.00;;;;5067129;28;20817;-78
2024/01/12 02:49:55;;;;;;;43.40;21.60;;;3.40;68.80;1.40;97337.00;;;;5071381;28;20462;-78
2024/01/12 02:52:22;;;;;;;40.13;20.63;;;3.40;68.80;1.40;97344.00;;;;5071240;28;20521;-78
2024/01/12 02:54:49;;;;;;;43.80;21.57;;;3.40;68.70;1.40;97344.00;;;;5070607;28;20473;-78
2024/01/12 02:57:18;;;;;;;42.53;21.03;;;3.40;68.70;1.40;97343.00;;;;5075817;28;20462;-78
2024/01/12 02:59:45;;;;;;;43.67;21.23;;;3.40;68.70;1.30;97346.00;;;;5071600;28;20454;-78
2024/01/12 03:02:12;;;;;;;43.53;21.47;;;3.40;68.70;1.30;97344.00;;;;5072628;28;20541;-78
2024/01/12 03:04:39;;;;;;;43.20;20.90;;;3.30;68.60;1.30;97338.00;;;;5078293;28;20534;-78
2024/01/12 03:07:07;;;;;;;40.93;20.23;;;3.30;68.70;1.30;97343.00;;;;5069983;28;20439;-78
2024/01/12 03:09:35;;;;;;;41.63;20.97;;;3.30;68.60;1.30;97339.00;;;;5065117;28;20493;-78
2024/01/12 03:12:02;;;;;;;41.67;21.07;;;3.30;68.70;1.30;97342.00;;;;5069673;28;20982;-78
2024/01/12 03:14:30;;;;;;;41.20;20.27;;;3.30;68.80;1.30;97336.00;;;;5070951;28;20489;-77
2024/01/12 03:16:58;;;;;;;39.03;20.03;;;3.30;68.80;1.30;97349.00;;;;5070407;28;20435;-78
2024/01/12 03:19:25;;;;;;;37.60;19.10;;;3.30;68.80;1.30;97345.00;;;;5071671;28;20481;-78
2024/01/12 03:21:52;;;;;;;43.10;21.17;;;3.30;68.70;1.30;97354.00;;;;5070579;28;20500;-78
2024/01/12 03:24:19;;;;;;;38.77;19.43;;;3.30;68.80;1.30;97355.00;;;;5072847;28;20442;-77
2024/01/12 03:26:47;;;;;;;36.60;18.73;;;3.30;68.70;1.20;97348.00;;;;5068293;28;20458;-77
2024/01/12 03:29:14;;;;;;;34.90;18.00;;;3.30;68.50;1.20;97356.00;;;;5071409;28;20466;-77
2024/01/12 03:31:43;;;;;;;39.30;18.97;;;3.20;68.50;1.20;97363.00;;;;5072595;28;20431;-78
2024/01/12 03:34:10;;;;;;;36.43;19.57;;;3.20;68.50;1.20;97366.00;;;;5074733;28;20445;-78
2024/01/12 03:36:37;;;;;;;34.03;18.07;;;3.20;68.60;1.20;97373.00;;;;5067976;28;20994;-78
2024/01/12 03:39:05;;;;;;;35.87;19.03;;;3.20;68.50;1.20;97368.00;;;;5068797;28;20494;-78
2024/01/12 03:41:32;;;;;;;38.53;20.07;;;3.10;68.60;1.10;97375.00;;;;5066274;28;20829;-78
2024/01/12 03:43:59;;;;;;;35.83;19.47;;;3.10;68.50;1.10;97380.00;;;;5069312;28;20537;-78
2024/01/12 03:46:26;;;;;;;36.57;18.23;;;3.10;68.50;1.10;97378.00;;;;5073662;28;21386;-78
2024/01/12 03:48:56;;;;;;;35.53;18.97;;;3.10;68.60;1.10;97372.00;;;;5067105;28;20511;-78
2024/01/12 03:51:23;;;;;;;37.13;20.50;;;3.10;68.70;1.00;97368.00;;;;5073183;28;20438;-78
2024/01/12 03:53:50;;;;;;;36.37;18.53;;;3.00;68.60;1.00;97355.00;;;;5074373;28;20958;-78
2024/01/12 03:56:17;;;;;;;37.73;18.60;;;3.00;68.60;1.00;97353.00;;;;5074291;28;20478;-78
2024/01/12 03:58:44;;;;;;;37.03;18.87;;;3.00;68.60;0.90;97348.00;;;;5077107;28;20556;-78
2024/01/12 04:01:11;;;;;;;35.73;19.30;;;3.00;68.50;0.90;97356.00;;;;5074164;28;20446;-78
2024/01/12 04:03:40;;;;;;;37.77;19.63;;;2.90;68.40;0.90;97360.00;;;;5077917;28;20931;-78
2024/01/12 04:06:11;;;;;;;37.97;18.83;;;2.90;68.40;0.90;97356.00;;;;5073798;28;20946;-78
2024/01/12 04:08:38;;;;;;;38.07;19.57;;;2.90;68.30;0.80;97350.00;;;;5065661;28;21045;-78
2024/01/12 04:11:06;;;;;;;37.10;18.50;;;2.90;69.10;0.80;97355.00;;;;5072854;28;20530;-78
2024/01/12 04:13:33;;;;;;;36.70;18.27;;;2.80;68.20;0.70;97354.00;;;;5075450;28;20465;-77
2024/01/12 04:16:01;;;;;;;34.60;19.20;;;2.80;68.20;0.70;97355.00;;;;5073383;28;20457;-78
2024/01/12 04:18:28;;;;;;;35.83;18.07;;;2.70;68.20;0.70;97351.00;;;;5073791;28;20565;-78
2024/01/12 04:20:57;;;;;;;38.27;18.93;;;2.70;68.30;0.60;97368.00;;;;5074519;28;20522;-77
2024/01/12 04:23:26;;;;;;;36.70;19.20;;;2.70;68.50;0.60;97354.00;;;;5063297;28;20468;-78
2024/01/12 04:25:53;;;;;;;39.27;19.03;;;2.70;68.60;0.60;97355.00;;;;5071280;28;20508;-77
2024/01/12 04:28:20;;;;;;;36.53;18.43;;;2.60;68.70;0.60;97354.00;;;;5070957;28;20443;-77
2024/01/12 04:30:47;;;;;;;36.87;18.60;;;2.60;68.80;0.60;97367.00;;;;5069664;28;20968;-78
2024/01/12 04:33:14;;;;;;;41.63;19.70;;;2.60;69.50;0.60;97372.00;;;;5071309;28;20477;-77
2024/01/12 04:35:42;;;;;;;35.30;17.87;;;2.60;68.90;0.60;97363.00;;;;5075308;28;20946;-77
2024/01/12 04:38:09;;;;;;;40.50;19.53;;;2.60;69.10;0.60;97355.00;;;;5071771;28;20561;-78
2024/01/12 04:40:40;;;;;;;39.87;19.47;;;2.60;69.20;0.60;97357.00;;;;5064385;28;20446;-78
2024/01/12 04:43:07;;;;;;;37.57;19.60;;;2.60;69.30;0.60;97374.00;;;;5072529;28;20526;-78
2024/01/12 04:45:34;;;;;;;41.77;20.33;;;2.60;69.40;0.60;97365.00;;;;5065662;28;20534;-78
2024/01/12 04:48:01;;;;;;;36.03;19.53;;;2.60;69.60;0.70;97381.00;;;;5075281;28;20485;-78
2024/01/12 04:50:28;;;;;;;41.70;21.00;;;2.70;69.70;0.70;97379.00;;;;5073333;28;20443;-78
2024/01/12 04:52:55;;;;;;;41.57;20.70;;;2.70;69.70;0.70;97385.00;;;;5073521;28;20476;-78
2024/01/12 04:55:22;;;;;;;42.20;21.20;;;2.70;69.80;0.70;97385.00;;;;5073224;28;20455;-78
2024/01/12 04:57:51;;;;;;;38.67;19.90;;;2.70;69.80;0.80;97384.00;;;;5073328;28;20533;-78
2024/01/12 05:00:20;;;;;;;41.17;20.13;;;2.80;70.00;0.80;97393.00;;;;5072413;28;20552;-79
2024/01/12 05:02:47;;;;;;;154.37;71.53;;;2.80;70.00;0.90;97389.00;;;;5061356;28;20531;-78
2024/01/12 05:05:15;;;;;;;52.80;27.30;;;2.80;70.00;0.90;97391.00;;;;5070743;28;20985;-78
2024/01/12 05:07:42;;;;;;;44.00;22.63;;;2.90;70.00;0.90;97394.00;;;;5071634;28;20442;-78
2024/01/12 05:10:11;;;;;;;47.13;21.90;;;2.90;69.90;1.00;97401.00;;;;5072738;28;20486;-78
2024/01/12 05:12:38;;;;;;;46.70;22.47;;;3.00;69.80;1.00;97400.00;;;;5078849;28;20799;-78
2024/01/12 05:15:07;;;;;;;40.33;22.13;;;3.00;69.90;1.10;97395.00;;;;5072376;28;20442;-78
2024/01/12 05:17:35;;;;;;;44.77;21.30;;;3.00;69.90;1.10;97390.00;;;;5045401;28;20447;-78
2024/01/12 05:20:06;;;;;;;42.13;22.43;;;3.10;69.90;1.10;97388.00;;;;5070980;28;20562;-78
2024/01/12 05:22:35;;;;;;;40.03;21.20;;;3.10;69.80;1.20;97395.00;;;;5070646;28;20442;-78
2024/01/12 05:25:04;;;;;;;47.60;22.53;;;3.10;69.60;1.20;97387.00;;;;5078912;28;20435;-78
2024/01/12 05:27:32;;;;;;;44.20;22.07;;;3.20;69.50;1.20;97394.00;;;;5068923;28;20970;-78
2024/01/12 05:29:59;;;;;;;46.03;22.23;;;3.20;70.00;1.20;97395.00;;;;5071164;28;20541;-78
2024/01/12 05:32:27;;;;;;;40.90;20.73;;;3.20;69.10;1.20;97410.00;;;;5072158;28;20525;-78
2024/01/12 05:34:55;;;;;;;42.67;21.17;;;3.20;69.70;1.10;97418.00;;;;5067282;28;20884;-77
2024/01/12 05:37:22;;;;;;;44.13;20.83;;;3.20;69.70;1.10;97412.00;;;;5064573;28;20537;-78
2024/01/12 05:39:49;;;;;;;38.20;20.37;;;3.20;68.70;1.10;97413.00;;;;5071878;28;21057;-77
2024/01/12 05:42:16;;;;;;;43.10;21.57;;;3.10;68.70;1.10;97401.00;;;;5071176;28;20463;-77
2024/01/12 05:44:43;;;;;;;43.97;21.37;;;3.10;68.60;1.00;97406.00;;;;5071420;28;20537;-78
2024/01/12 05:47:10;;;;;;;44.30;21.77;;;3.10;68.60;0.90;97403.00;;;;5072140;28;20470;-78
2024/01/12 05:49:39;;;;;;;44.50;22.63;;;3.00;68.30;0.90;97403.00;;;;5077414;28;20557;-77
2024/01/12 05:52:06;;;;;;;40.87;20.40;;;3.00;68.30;0.90;97408.00;;;;5064793;28;20530;-77
2024/01/12 05:54:34;;;;;;;41.93;21.43;;;2.90;68.20;0.80;97407.00;;;;5063237;28;20881;-77
2024/01/12 05:57:02;;;;;;;45.47;21.90;;;2.90;68.30;0.70;97421.00;;;;5067908;28;20452;-77
2024/01/12 05:59:29;;;;;;;43.80;21.50;;;2.80;68.10;0.70;97426.00;;;;5072868;28;20485;-78
2024/01/12 06:01:57;;;;;;;37.53;19.80;;;2.80;68.90;0.60;97423.00;;;;5079414;28;20469;-78
2024/01/12 06:04:24;;;;;;;41.27;20.87;;;2.70;68.10;0.60;97419.00;;;;5075122;28;20434;-78
2024/01/12 06:06:52;;;;;;;43.17;20.23;;;2.70;68.20;0.50;97417.00;;;;5072448;28;20438;-78
2024/01/12 06:09:20;;;;;;;40.73;21.23;;;2.60;68.10;0.50;97420.00;;;;5071384;28;20488;-77
2024/01/12 06:11:47;;;;;;;45.93;21.17;;;2.60;68.00;0.40;97411.00;;;;5071032;28;20442;-77
2024/01/12 06:14:16;;;;;;;41.90;21.83;;;2.50;67.90;0.30;97408.00;;;;5069779;28;20990;-77
2024/01/12 06:16:44;;;;;;;39.07;20.07;;;2.50;67.90;0.30;97398.00;;;;5070255;28;20529;-78
2024/01/12 06:19:11;;;;;;;44.90;22.23;;;2.40;67.90;0.20;97401.00;;;;5070019;28;20502;-77
2024/01/12 06:21:38;;;;;;;44.97;22.90;;;2.40;67.90;0.20;97397.00;;;;5072456;28;20572;-78
2024/01/12 06:24:08;;;;;;;44.33;22.93;;;2.30;68.10;0.20;97398.00;;;;5066027;28;20962;-78
2024/01/12 06:26:35;;;;;;;45.30;22.63;;;2.30;68.10;0.10;97403.00;;;;5063703;28;20545;-78
2024/01/12 06:29:02;;;;;;;40.23;20.90;;;2.20;68.10;0.00;97390.00;;;;5075593;28;20894;-78
2024/01/12 06:31:31;;;;;;;43.97;22.10;;;2.20;68.20;0.00;97401.00;;;;5071384;28;20478;-77
2024/01/12 06:33:59;;;;;;;42.00;21.20;;;2.20;68.20;0.00;97407.00;;;;5067714;28;20525;-77
2024/01/12 06:36:27;;;;;;;44.30;21.93;;;2.10;68.10;-0.10;97399.00;;;;5070804;28;20504;-78
2024/01/12 06:38:54;;;;;;;41.60;22.43;;;2.10;68.10;-0.10;97400.00;;;;5053799;28;20478;-77
2024/01/12 06:41:22;;;;;;;39.87;21.20;;;2.00;68.10;-0.20;97413.00;;;;5070145;28;20521;-77
2024/01/12 06:43:50;;;;;;;46.30;21.93;;;2.00;68.20;-0.20;97405.00;;;;5071372;28;20451;-78
2024/01/12 06:46:17;;;;;;;46.47;23.23;;;2.00;68.20;-0.20;97404.00;;;;5072791;28;20942;-78
2024/01/12 06:48:44;;;;;;;41.23;20.00;;;1.90;68.50;-0.30;97402.00;;;;5071767;28;21020;-78
2024/01/12 06:51:11;;;;;;;49.23;22.80;;;1.90;68.20;-0.30;97410.00;;;;5072500;28;20825;-77
2024/01/12 06:53:38;;;;;;;43.00;21.70;;;1.90;68.20;-0.30;97408.00;;;;5073663;28;20438;-79
2024/01/12 06:56:06;;;;;;;43.60;21.20;;;1.90;68.20;-0.30;97417.00;;;;5070770;28;21033;-78
2024/01/12 06:58:35;;;;;;;43.13;20.97;;;1.90;68.10;-0.30;97412.00;;;;5072730;28;20564;-78
2024/01/12 07:01:02;;;;;;;40.93;20.50;;;1.90;67.90;-0.40;97410.00;;;;5074924;28;20959;-78
2024/01/12 07:03:31;;;;;;;43.47;21.30;;;1.80;67.60;-0.40;97414.00;;;;5075737;28;20435;-78
2024/01/12 07:05:59;;;;;;;44.27;22.30;;;1.80;67.50;-0.40;97416.00;;;;5075624;28;20530;-78
2024/01/12 07:08:26;;;;;;;45.33;21.40;;;1.80;67.60;-0.50;97408.00;;;;5068192;28;20458;-77
2024/01/12 07:10:53;;;;;;;43.43;21.77;;;1.90;67.60;-0.50;97407.00;;;;5068476;28;20478;-78
2024/01/12 07:13:20;;;;;;;45.30;21.90;;;1.80;67.60;-0.50;97418.00;;;;5067989;28;20446;-78
2024/01/12 07:15:49;;;;;;;38.77;20.27;;;1.80;67.60;-0.50;97406.00;;;;5075684;28;20470;-77
2024/01/12 07:18:16;;;;;;;39.63;20.33;;;1.80;67.70;-0.50;97413.00;;;;5068403;28;20455;-77
2024/01/12 07:20:44;;;;;;;44.37;21.00;;;1.80;67.70;-0.50;97400.00;;;;5061890;28;20508;-78
2024/01/12 07:23:11;;;;;;;46.23;22.13;;;1.70;67.50;-0.60;97408.00;;;;5070351;28;20540;-77
2024/01/12 07:25:38;;;;;;;43.30;22.50;;;1.70;67.30;-0.60;97418.00;;;;5071717;28;20986;-77
2024/01/12 07:28:06;;;;;;;44.53;21.63;;;1.70;67.20;-0.70;97415.00;;;;5072984;28;20454;-78
2024/01/12 07:30:37;;;;;;;40.00;20.53;;;1.70;67.30;-0.70;97419.00;;;;5074474;28;20446;-78
2024/01/12 07:33:06;;;;;;;45.50;21.90;;;1.70;67.40;-0.70;97422.00;;;;5075101;28;20525;-78
2024/01/12 07:35:33;;;;;;;44.03;20.97;;;1.70;67.40;-0.70;97425.00;;;;5073696;28;20521;-78
2024/01/12 07:38:00;;;;;;;39.43;19.77;;;1.70;67.40;-0.70;97417.00;;;;5075260;28;20522;-77
2024/01/12 07:40:27;;;;;;;44.17;21.27;;;1.60;67.40;-0.80;97423.00;;;;5072836;28;20527;-77
2024/01/12 07:42:55;;;;;;;40.67;20.43;;;1.60;67.60;-0.70;97418.00;;;;5075582;28;20438;-78
2024/01/12 07:45:22;;;;;;;45.40;21.90;;;1.60;68.50;-0.70;97428.00;;;;5074236;28;20885;-78
2024/01/12 07:47:49;;;;;;;48.70;22.97;;;1.60;67.90;-0.70;97433.00;;;;5074629;28;20438;-78
2024/01/12 07:50:17;;;;;;;46.30;21.43;;;1.60;68.00;-0.70;97423.00;;;;5075002;28;20466;-78
2024/01/12 07:52:45;;;;;;;46.60;23.53;;;1.60;68.10;-0.70;97429.00;;;;5068038;28;20466;-78
2024/01/12 07:55:14;;;;;;;47.40;22.77;;;1.60;68.20;-0.70;97427.00;;;;5075284;28;20446;-78
2024/01/12 07:57:41;;;;;;;43.90;22.20;;;1.60;68.00;-0.70;97430.00;;;;5075192;28;20881;-78
2024/01/12 08:00:10;;;;;;;45.10;22.60;;;1.60;68.00;-0.70;97427.00;;;;5074047;28;20497;-77
2024/01/12 08:02:37;;;;;;;48.87;22.87;;;1.60;68.20;-0.60;97434.00;;;;5077513;28;20453;-78
2024/01/12 08:05:08;;;;;;;45.50;22.40;;;1.60;68.20;-0.60;97442.00;;;;5072354;28;21025;-78
2024/01/12 08:07:38;;;;;;;46.83;22.87;;;1.60;68.30;-0.60;97435.00;;;;5065271;28;20537;-78
2024/01/12 08:10:06;;;;;;;44.50;22.00;;;1.60;68.50;-0.50;97438.00;;;;5073306;28;20511;-78
2024/01/12 08:12:33;;;;;;;43.40;21.70;;;1.70;68.60;-0.50;97445.00;;;;5072344;28;20466;-78
2024/01/12 08:15:00;;;;;;;44.33;22.73;;;1.70;68.70;-0.40;97444.00;;;;5076212;28;20442;-78
2024/01/12 08:17:28;;;;;;;46.13;22.00;;;1.70;68.70;-0.40;97443.00;;;;5073617;28;20777;-78
2024/01/12 08:19:56;;;;;;;47.10;21.47;;;1.80;68.80;-0.40;97436.00;;;;5075389;28;21014;-78
2024/01/12 08:22:23;;;;;;;49.00;21.80;;;1.80;68.80;-0.30;97438.00;;;;5068548;28;20446;-78
2024/01/12 08:24:52;;;;;;;47.37;24.17;;;1.80;69.00;-0.30;97444.00;;;;5068697;28;20451;-78
2024/01/12 08:27:19;;;;;;;45.87;22.47;;;1.80;69.00;-0.20;97456.00;;;;5072481;28;21027;-78
2024/01/12 08:29:46;;;;;;;44.97;21.53;;;1.90;69.00;-0.10;97456.00;;;;5073956;28;20497;-78
2024/01/12 08:32:14;;;;;;;40.63;22.23;;;1.90;69.00;-0.10;97460.00;;;;5075523;28;20797;-78
2024/01/12 08:34:41;;;;;;;44.90;23.27;;;2.00;69.10;0.00;97464.00;;;;5074125;28;20473;-78
2024/01/12 08:37:08;;;;;;;48.13;23.87;;;2.00;69.00;0.00;97459.00;;;;5072702;28;20473;-78
2024/01/12 08:39:36;;;;;;;45.27;22.30;;;2.10;69.20;0.00;97457.00;;;;5065572;28;20465;-78
2024/01/12 08:42:06;;;;;;;43.90;22.47;;;2.10;69.20;0.10;97472.00;;;;5072438;28;20466;-78
2024/01/12 08:44:33;;;;;;;50.47;23.17;;;2.20;69.20;0.20;97470.00;;;;5073404;28;20474;-78
2024/01/12 08:47:00;;;;;;;46.90;24.47;;;2.20;69.20;0.20;97473.00;;;;5073552;28;20438;-78
2024/01/12 08:49:28;;;;;;;45.60;23.43;;;2.30;69.40;0.30;97473.00;;;;5081007;28;20524;-78
2024/01/12 08:51:55;;;;;;;45.63;21.60;;;2.30;69.30;0.40;97472.00;;;;5068682;28;20445;-78
2024/01/12 08:54:22;;;;;;;42.90;22.17;;;2.40;70.10;0.40;97470.00;;;;5072901;28;20475;-78
2024/01/12 08:56:50;;;;;;;44.00;21.73;;;2.40;69.30;0.50;97471.00;;;;5072784;28;20549;-78
2024/01/12 08:59:20;;;;;;;42.63;22.00;;;2.50;69.20;0.60;97471.00;;;;5073560;28;20548;-78
2024/01/12 09:01:47;;;;;;;45.43;22.50;;;2.60;69.10;0.70;97470.00;;;;5073522;28;20530;-78
2024/01/12 09:04:14;;;;;;;47.10;24.83;;;2.60;69.00;0.70;97463.00;;;;5074252;28;20463;-78
2024/01/12 09:06:42;;;;;;;45.20;22.57;;;2.70;69.10;0.80;97469.00;;;;5075000;28;20457;-78
2024/01/12 09:09:09;;;;;;;47.03;23.60;;;2.80;69.20;0.80;97477.00;;;;5071814;28;20466;-78
2024/01/12 09:11:36;;;;;;;44.27;22.67;;;2.80;69.00;0.90;97486.00;;;;5072395;28;20462;-78
2024/01/12 09:14:04;;;;;;;47.13;22.43;;;2.90;68.80;0.90;97490.00;;;;5078470;28;20537;-78
2024/01/12 09:16:32;;;;;;;45.10;21.40;;;3.00;68.90;1.00;97485.00;;;;5074494;28;20447;-79
2024/01/12 09:19:00;;;;;;;45.77;22.07;;;3.00;68.70;1.10;97488.00;;;;5074035;28;20481;-79
2024/01/12 09:21:27;;;;;;;46.27;22.07;;;3.10;68.70;1.10;97495.00;;;;5069915;28;20435;-78
2024/01/12 09:23:54;;;;;;;44.67;21.80;;;3.20;68.60;1.20;97497.00;;;;5074107;28;20474;-79
2024/01/12 09:26:23;;;;;;;43.97;22.07;;;3.20;68.30;1.20;97495.00;;;;5069367;28;20484;-79
2024/01/12 09:28:50;;;;;;;46.20;22.73;;;3.30;68.30;1.30;97502.00;;;;5074815;28;20469;-79
2024/01/12 09:31:17;;;;;;;41.90;21.30;;;3.30;68.40;1.30;97499.00;;;;5070157;28;20509;-79
2024/01/12 09:33:45;;;;;;;45.13;22.40;;;3.40;68.40;1.40;97495.00;;;;5073929;28;20546;-78
2024/01/12 09:36:13;;;;;;;44.47;22.03;;;3.40;68.30;1.40;97501.00;;;;5074104;28;20483;-78
2024/01/12 09:38:40;;;;;;;44.00;21.80;;;3.50;68.50;1.50;97494.00;;;;5074053;28;20469;-78
2024/01/12 09:41:10;;;;;;;42.50;20.83;;;3.50;68.50;1.60;97490.00;;;;5072576;28;20486;-79
2024/01/12 09:43:38;;;;;;;43.03;21.77;;;3.60;68.50;1.70;97492.00;;;;5067033;28;20454;-79
2024/01/12 09:46:09;;;;;;;43.70;22.33;;;3.70;68.70;1.80;97493.00;;;;5074904;28;20649;-79
2024/01/12 09:48:37;;;;;;;46.93;23.53;;;3.80;68.70;1.90;97493.00;;;;5073243;28;20584;-79
2024/01/12 09:51:08;;;;;;;46.77;21.77;;;3.90;68.60;2.10;97489.00;;;;5077532;28;20192;-79
2024/01/12 09:53:37;;;;;;;40.53;21.63;;;4.00;68.50;2.20;97497.00;;;;5085089;28;20251;-79
2024/01/12 09:56:05;;;;;;;44.57;23.27;;;4.10;68.70;2.30;97489.00;;;;5082510;28;20202;-80
2024/01/12 09:58:34;;;;;;;45.90;22.37;;;4.20;68.80;2.50;97498.00;;;;5080058;28;20288;-79
2024/01/12 10:01:02;;;;;;;46.07;23.07;;;4.40;68.70;2.60;97493.00;;;;5075570;28;20212;-80
2024/01/12 10:03:30;;;;;;;46.53;23.67;;;4.50;68.40;2.70;97491.00;;;;5070078;28;20470;-79
2024/01/12 10:05:57;;;;;;;48.37;22.37;;;4.60;68.20;2.80;97485.00;;;;5072029;28;20414;-80
2024/01/12 10:08:36;;;;;;;44.90;23.03;;;4.70;68.10;2.90;97489.00;;;;5073466;28;20218;-80
2024/01/12 10:11:03;;;;;;;42.37;21.97;;;4.80;67.60;3.10;97477.00;;;;5073774;28;20604;-80
2024/01/12 10:13:31;;;;;;;43.77;23.43;;;5.00;68.20;3.20;97491.00;;;;5055519;28;20188;-81
2024/01/12 10:15:58;;;;;;;41.07;21.43;;;5.10;68.30;3.30;97481.00;;;;5074509;28;20210;-81
2024/01/12 10:18:29;;;;;;;44.23;23.23;;;5.20;68.00;3.50;97495.00;;;;5073915;28;20289;-82
2024/01/12 10:20:57;;;;;;;44.97;23.10;;;5.30;67.60;3.60;97491.00;;;;5075173;28;20243;-82
2024/01/12 10:23:26;;;;;;;42.63;23.17;;;5.50;67.70;3.60;97486.00;;;;5072034;28;20215;-82
2024/01/12 10:25:57;;;;;;;44.47;23.43;;;5.60;67.90;3.70;97485.00;;;;5072079;28;20196;-82
2024/01/12 10:28:27;;;;;;;43.23;22.87;;;5.70;66.90;3.80;97485.00;;;;5074331;28;20204;-82
2024/01/12 10:30:54;;;;;;;42.10;21.93;;;5.70;67.80;3.90;97490.00;;;;5074863;28;20230;-82
2024/01/12 10:33:23;;;;;;;41.63;22.10;;;5.80;67.00;3.90;97492.00;;;;5073981;28;20196;-83
2024/01/12 10:36:04;;;;;;;44.23;22.17;;;5.90;67.00;4.00;97489.00;;;;5074677;28;20214;-82
2024/01/12 10:38:36;;;;;;;42.60;22.97;;;6.00;66.50;4.10;97492.00;;;;5076430;28;20599;-83
2024/01/12 10:41:07;;;;;;;37.87;21.47;;;6.00;66.60;4.20;97497.00;;;;5073071;28;20299;-83
2024/01/12 10:43:38;;;;;;;40.97;22.70;;;6.10;66.50;4.20;97495.00;;;;5065257;28;20192;-83
2024/01/12 10:46:12;;;;;;;45.13;23.57;;;6.10;66.10;4.30;97494.00;;;;5078491;28;20187;-83
2024/01/12 10:48:56;;;;;;;39.20;21.80;;;6.20;65.50;4.30;97486.00;;;;5070986;28;20214;-83
2024/01/12 10:51:31;;;;;;;42.47;22.47;;;6.20;65.50;4.30;97478.00;;;;5072135;28;20215;-83
2024/01/12 10:54:06;;;;;;;40.70;22.70;;;6.30;65.50;4.40;97481.00;;;;5072503;28;20195;-83
2024/01/12 10:56:36;;;;;;;45.50;24.53;;;6.30;65.20;4.30;97474.00;;;;5069826;28;20655;-83